Pagrindinis puslapis
METAR-TAF:

METAR-TAF

Oro uostai :

Šimojas, Mozambikas

platuma: 19-07S, ilguma: 033-28E, Aukštis: 731 m

Dabartinis oras

Ataskaita buvo paskelbta 1 valandą ir 45 minutes, ne 01:00 UTC
Temperatūra 20°C
Drėgmė 100%
Slėgis 1016 hPa
Matomumas 10 km arba daugiau
Su prošvaistėmis ne aukštis 1000 ft
Su prošvaistėmis ne aukštis 1500 ft

METAR: FQCH 210100Z /////KT 9999 BKN010 BKN015 20/20 Q1016

Laikas: 04:45 (02:45 UTC)

Prognozė

Ataskaita buvo paskelbta 4 valandos ir 45 minutes, ne 22:00 UTC
Prognozė galioja nuo 21 metu 00 UTC su 21 metu 24 UTC
Vėjas 10 kt iš Pietų
Matomumas: 5000 m
Su prošvaistėmis ne aukštis 1000 ft
Su prošvaistėmis ne aukštis 1500 ft
lietus
Tapsmas
nuo 21 metu 12 UTC su 21 metu 14 UTC
Vėjas 10 kt iš Pietvakarių
Matomumas 10 km arba daugiau
Su prošvaistėmis ne aukštis 2000 ft
Tapsmas
nuo 21 metu 18 UTC su 21 metu 20 UTC
Vėjas 8 kt iš Pietryčių

TAF: FQCH 202200Z 2100/2124 17010KT 5000 RA BKN010 BKN015 TX24/2113Z TN19/2103Z BECMG 2112/2114 23010KT 9999 BKN020 BECMG 2118/2120 13008KT

Orai ataskaitas ir orų prognozės (METAR, TAF).

turimą stotys yra geltonos ir raudonos taškus žemėlapyje.

Perkelti pele per norėdami pamatyti stoties vardą.

Tada spustelėkite, norėdami matyti oro stebėjimo ir prognozės.

Norėdami pakeisti žemėlapį: spustelėkite ant žalios mygtukų su juodo kryžiaus žemyn,; žalią mygtuką su brūkšneliu, jei norite nutolinti; arba žalių rodyklių gretimoms žemėlapius.


METAR-TAF: